Airfield :
LOGIN :

Register | Disclaimer

   EN    FR    IT 

 










Legend :    VFR   Marginal VFR   IFR   Intensive IFR   Very Intensive IFR
Visi :
Ceiling :
>= 8 km
>= 3000ft
5 to 8 km
1000 to 3000 ft
1500m to 5 km
500 to 1000 ft
800 to 1500m
200 to 500 ft
< 800m
< 200 ft
Symbols :   Thunderstorms  Fog  Heavy snow  Heavy precipitations  Wind > 20 kt
SIGMETs :     Misc.  Thunderstorms  Icing  Turbulence  Mountain Waves  Volcanic Ashes






- Airport Elevation : 325 ft
- IATA code : BES


LFRB - Brest

CURRENT METAR :
  • 110430Z AUTO 23008KT 190V280 9999 -RA FEW021/// BKN027/// BKN034/// ///TCU 07/06 Q1005 BECMG 19018G30KT SCT040

EXPIRED METARs :
  • 110400Z AUTO 19005KT 9999 SCT026 SCT032 BKN039 06/05 Q1005 NOSIG
  • 110330Z AUTO 17006KT 9999 FEW025 SCT049 06/05 Q1005 NOSIG
  • 110300Z AUTO 17007KT 9999 SCT022 SCT027 06/05 Q1005 NOSIG
  • 110230Z AUTO 18007KT 9999 FEW027 06/05 Q1005 NOSIG
  • 110200Z AUTO 19007KT CAVOK 07/05 Q1005 TEMPO 4000 SHRA BKN020CB

TAF TAF LFRB
Valid from the 11 at 00:00 until the 12 at 06:00 UTC


102300Z 1100/1206 19010KT 9999 SCT040
PROB30
TEMPO 1100/1103 4000 SHRA BKN020CB
BECMG 1106/1108 19018G30KT
TEMPO 1108/1113 4000 SHRA BKN025CB
PROB40
TEMPO 1108/1113 2000 TSRA BKN014 BKN025CB
BECMG 1111/1113 25018G30KT
PROB30
TEMPO 1113/1124 4500 SHRA BKN030TCU
BECMG 1118/1120 24008KT
TEMPO 1204/1206 4000 RA BKN008 OVC050
ATIS : +33 2 98 32 02 71



MET'MAP, your aeronautical weather chart ! - Copyright ORBIFLY December 2007 - Disclaimer

ORBIFLY MET'MAP TEAM :

Programming & Development : Alexandra Zaïnal
Concept & original design : Baudouin d'Aumeries
Assistance for programming : Marc-Olivier Méhu
Technical & hardware support : Manuel Goepfert

Contact : metmap@orbifly.com




SOURCES & CREDITS :

   NOAA